createdAt,value
2022-09-23T00:01:11.745Z,94.60
2022-09-23T00:03:41.961Z,95.50
2022-09-23T00:06:14.575Z,95.20
2022-09-23T00:08:41.776Z,95.00
2022-09-23T00:11:11.693Z,95.00
2022-09-23T00:13:41.292Z,95.20
2022-09-23T00:16:11.602Z,95.00
2022-09-23T00:18:38.928Z,94.80
2022-09-23T00:21:08.441Z,94.40
2022-09-23T00:23:35.550Z,94.20
2022-09-23T00:26:05.244Z,93.90
2022-09-23T00:28:33.211Z,93.70
2022-09-23T00:31:08.345Z,93.70
2022-09-23T00:33:35.320Z,93.50
2022-09-23T00:36:04.584Z,93.20
2022-09-23T00:38:32.254Z,93.30
2022-09-23T00:40:59.234Z,93.00
2022-09-23T00:43:46.740Z,92.80
2022-09-23T00:46:20.520Z,92.90
2022-09-23T00:48:50.752Z,93.20
2022-09-23T00:51:23.305Z,93.20
2022-09-23T00:53:52.284Z,93.10
2022-09-23T00:56:23.017Z,93.20
2022-09-23T00:58:51.467Z,93.50
2022-09-23T01:01:20.372Z,93.40
2022-09-23T01:03:47.688Z,93.40
2022-09-23T01:06:14.997Z,93.80
2022-09-23T01:08:45.867Z,93.90
2022-09-23T01:11:27.848Z,93.70
2022-09-23T01:14:17.315Z,93.40
2022-09-23T01:16:58.722Z,93.50
2022-09-23T01:20:03.455Z,93.40
2022-09-23T01:22:35.441Z,93.20
2022-09-23T01:25:42.688Z,93.40
2022-09-23T01:28:35.511Z,93.40
2022-09-23T01:31:15.785Z,93.30
2022-09-23T01:33:56.877Z,93.60
2022-09-23T01:36:34.203Z,93.70
2022-09-23T01:39:08.174Z,93.90
2022-09-23T01:41:59.743Z,94.20
2022-09-23T01:44:39.097Z,94.40
2022-09-23T01:47:14.164Z,94.60
2022-09-23T01:49:55.214Z,94.70
2022-09-23T01:52:32.631Z,94.40
2022-09-23T01:55:24.712Z,94.20
2022-09-23T01:58:08.386Z,94.40
2022-09-23T02:00:40.781Z,94.40
2022-09-23T02:03:26.935Z,94.60
2022-09-23T02:06:04.262Z,94.60
2022-09-23T02:08:45.108Z,94.60
2022-09-23T02:11:15.258Z,94.80
2022-09-23T02:13:58.847Z,95.10
2022-09-23T02:16:33.692Z,94.80
2022-09-23T02:19:08.748Z,94.70
2022-09-23T02:21:42.097Z,94.80
2022-09-23T02:24:17.080Z,94.90
2022-09-23T02:27:15.222Z,94.90
2022-09-23T02:30:02.401Z,94.90
2022-09-23T02:32:52.758Z,94.70
2022-09-23T02:35:25.624Z,95.00
2022-09-23T02:38:02.834Z,95.20
2022-09-23T02:40:38.715Z,95.30
2022-09-23T02:43:12.375Z,95.40
2022-09-23T02:45:39.302Z,95.40
2022-09-23T02:48:14.665Z,95.60
2022-09-23T02:50:41.691Z,96.20
2022-09-23T02:53:08.845Z,96.40
2022-09-23T02:55:35.597Z,96.20
2022-09-23T02:58:03.497Z,96.10
2022-09-23T03:00:40.521Z,96.20
2022-09-23T03:03:28.583Z,96.30
2022-09-23T03:05:59.496Z,96.40
2022-09-23T03:08:36.765Z,96.50
2022-09-23T03:11:08.588Z,96.60
2022-09-23T03:14:19.830Z,96.50
2022-09-23T03:16:50.278Z,96.50
2022-09-23T03:19:26.639Z,96.60
2022-09-23T03:22:20.477Z,96.60
2022-09-23T03:24:53.734Z,96.50
2022-09-23T03:27:32.419Z,96.40
2022-09-23T03:30:00.494Z,96.40
2022-09-23T03:32:29.294Z,96.20
2022-09-23T03:34:58.684Z,96.40
2022-09-23T03:37:26.233Z,96.50
2022-09-23T03:40:26.966Z,96.60
2022-09-23T03:42:56.268Z,96.60
2022-09-23T03:45:27.989Z,96.60
2022-09-23T03:47:55.072Z,96.60
2022-09-23T03:50:22.251Z,96.50
2022-09-23T03:52:52.487Z,96.40
2022-09-23T03:55:20.293Z,96.30
2022-09-23T03:57:47.808Z,96.60
2022-09-23T04:00:15.998Z,96.60
2022-09-23T04:02:43.306Z,96.60
2022-09-23T04:05:11.606Z,96.60
2022-09-23T04:07:39.359Z,96.60
2022-09-23T04:10:06.982Z,96.60
2022-09-23T04:12:33.776Z,96.60
2022-09-23T04:15:00.576Z,96.60
2022-09-23T04:17:27.410Z,96.60
2022-09-23T04:19:54.136Z,96.60
2022-09-23T04:22:21.193Z,96.60
2022-09-23T04:24:49.190Z,96.60
2022-09-23T04:27:16.043Z,96.60
2022-09-23T04:29:42.920Z,96.60
2022-09-23T04:32:10.155Z,96.60
2022-09-23T04:34:37.083Z,96.60
2022-09-23T04:37:03.983Z,96.60
2022-09-23T04:39:30.972Z,96.60
2022-09-23T04:41:57.837Z,96.60
2022-09-23T04:44:25.007Z,96.60
2022-09-23T04:46:51.887Z,96.60
2022-09-23T04:49:18.788Z,96.60
2022-09-23T04:51:45.690Z,96.60
2022-09-23T04:54:14.957Z,96.60
2022-09-23T04:56:42.567Z,96.60
2022-09-23T04:59:09.725Z,96.60
2022-09-23T05:01:38.294Z,96.60
2022-09-23T05:04:08.379Z,96.60
2022-09-23T05:06:36.080Z,96.60
2022-09-23T05:09:05.752Z,96.60
2022-09-23T05:11:33.612Z,96.60
2022-09-23T05:14:00.583Z,96.60
2022-09-23T05:16:27.571Z,96.60
2022-09-23T05:18:54.753Z,96.60
2022-09-23T05:21:23.757Z,96.60
2022-09-23T05:23:56.493Z,96.60
2022-09-23T05:26:25.736Z,96.60
2022-09-23T05:28:53.945Z,96.60
2022-09-23T05:31:24.050Z,96.60
2022-09-23T05:33:53.427Z,96.60
2022-09-23T05:36:21.687Z,96.60
2022-09-23T05:38:52.594Z,96.60
2022-09-23T05:41:22.815Z,96.60
2022-09-23T05:43:51.691Z,96.60
2022-09-23T05:46:21.133Z,96.60
2022-09-23T05:48:48.157Z,96.60
2022-09-23T05:51:21.097Z,96.60
2022-09-23T05:53:48.578Z,96.60
2022-09-23T05:56:17.825Z,96.60
2022-09-23T05:58:45.564Z,96.60
2022-09-23T06:01:14.609Z,96.60
2022-09-23T06:03:41.923Z,96.60
2022-09-23T06:06:14.528Z,96.60
2022-09-23T06:08:42.157Z,96.60
2022-09-23T06:11:09.048Z,96.60
2022-09-23T06:13:38.110Z,96.60
2022-09-23T06:16:10.823Z,96.60
2022-09-23T06:18:45.766Z,96.40
2022-09-23T06:21:16.973Z,96.30
2022-09-23T06:23:45.016Z,96.30
2022-09-23T06:26:14.860Z,95.80
2022-09-23T06:28:43.190Z,95.50
2022-09-23T06:31:15.336Z,95.40
2022-09-23T06:33:43.446Z,94.90
2022-09-23T06:36:11.881Z,94.60
2022-09-23T06:38:40.088Z,94.40
2022-09-23T06:41:07.431Z,94.00
2022-09-23T06:43:34.376Z,93.80
2022-09-23T06:46:04.154Z,92.90
2022-09-23T06:48:35.150Z,92.90
2022-09-23T06:51:05.133Z,93.00
2022-09-23T06:53:32.473Z,92.70
2022-09-23T06:56:05.205Z,92.50
2022-09-23T06:58:33.067Z,91.40
2022-09-23T07:01:05.055Z,91.90
2022-09-23T07:03:32.148Z,91.30
2022-09-23T07:05:59.814Z,91.50
2022-09-23T07:08:28.397Z,91.30
2022-09-23T07:10:56.900Z,90.80
2022-09-23T07:13:24.214Z,89.70
2022-09-23T07:15:58.400Z,89.90
2022-09-23T07:18:26.743Z,89.70
2022-09-23T07:20:58.351Z,89.30
2022-09-23T07:23:25.798Z,89.10
2022-09-23T07:25:52.786Z,88.70
2022-09-23T07:28:20.440Z,88.20
2022-09-23T07:30:58.608Z,87.60
2022-09-23T07:33:33.216Z,87.80
2022-09-23T07:36:07.158Z,87.00
2022-09-23T07:38:34.261Z,81.70
2022-09-23T07:41:03.999Z,77.70
2022-09-23T07:43:32.492Z,72.50
2022-09-23T07:46:16.477Z,67.00
2022-09-23T07:48:44.531Z,64.40
2022-09-23T07:51:22.647Z,62.40
2022-09-23T07:53:54.659Z,57.60
2022-09-23T07:56:24.811Z,55.70
2022-09-23T07:59:01.000Z,53.50
2022-09-23T08:01:30.141Z,49.60
2022-09-23T08:03:58.756Z,49.80
2022-09-23T08:06:25.636Z,49.30
2022-09-23T08:08:53.620Z,47.60
2022-09-23T08:11:20.556Z,47.70
2022-09-23T08:13:47.711Z,46.20
2022-09-23T08:16:14.598Z,46.90
2022-09-23T08:18:45.228Z,46.50
2022-09-23T08:21:12.305Z,47.00
2022-09-23T08:23:39.148Z,47.60
2022-09-23T08:26:11.642Z,49.10
2022-09-23T08:28:43.514Z,49.80
2022-09-23T08:31:10.536Z,49.80
2022-09-23T08:33:37.642Z,50.30
2022-09-23T08:36:04.706Z,51.50
2022-09-23T08:38:31.547Z,52.80
2022-09-23T08:41:25.950Z,52.70
2022-09-23T08:43:57.692Z,53.80
2022-09-23T08:46:35.115Z,55.60
2022-09-23T08:49:02.310Z,55.60
2022-09-23T08:51:40.110Z,56.00
2022-09-23T08:54:13.238Z,55.00
2022-09-23T08:56:43.518Z,55.10
2022-09-23T08:59:17.096Z,59.20
2022-09-23T09:01:52.634Z,57.40
2022-09-23T09:04:44.650Z,59.50
2022-09-23T09:10:25.468Z,56.80
2022-09-23T09:13:34.622Z,57.00
2022-09-23T09:16:16.664Z,58.00
2022-09-23T09:18:55.193Z,57.20
2022-09-23T09:21:37.099Z,54.20
2022-09-23T09:24:09.394Z,54.50
2022-09-23T09:26:37.686Z,53.60
2022-09-23T09:29:31.322Z,52.50
2022-09-23T09:32:07.715Z,52.00
2022-09-23T09:34:41.256Z,53.70
2022-09-23T09:37:19.940Z,51.80
2022-09-23T09:39:46.979Z,50.40
2022-09-23T09:42:35.383Z,50.40
2022-09-23T09:45:04.479Z,47.60
2022-09-23T09:47:40.479Z,47.60
2022-09-23T09:50:10.587Z,48.50
2022-09-23T09:52:44.088Z,49.70
2022-09-23T09:55:13.923Z,49.80
2022-09-23T09:57:46.455Z,46.80
2022-09-23T10:00:22.076Z,45.90
2022-09-23T10:02:53.705Z,45.90
2022-09-23T10:05:43.938Z,46.10
2022-09-23T10:08:35.237Z,45.60
2022-09-23T10:11:03.764Z,45.50
2022-09-23T10:13:31.561Z,45.90
2022-09-23T10:16:01.243Z,44.10
2022-09-23T10:18:32.509Z,44.30
2022-09-23T10:21:07.121Z,43.80
2022-09-23T10:23:38.408Z,43.60
2022-09-23T10:26:08.214Z,43.60
2022-09-23T10:28:55.537Z,42.70
2022-09-23T10:31:26.669Z,42.10
2022-09-23T10:34:00.340Z,43.20
2022-09-23T10:36:33.301Z,41.80
2022-09-23T10:39:22.572Z,41.20
2022-09-23T10:42:25.522Z,41.30
2022-09-23T10:45:22.791Z,40.20
2022-09-23T10:48:16.886Z,41.70
2022-09-23T10:50:54.061Z,40.90
2022-09-23T10:53:36.145Z,41.00
2022-09-23T10:56:23.946Z,39.40
2022-09-23T10:59:27.052Z,39.30
2022-09-23T11:02:21.915Z,40.00
2022-09-23T11:04:50.957Z,37.30
2022-09-23T11:07:20.740Z,38.10
2022-09-23T11:10:35.338Z,39.20
2022-09-23T11:13:15.318Z,37.10
2022-09-23T11:16:19.229Z,38.00
2022-09-23T11:18:58.160Z,36.90
2022-09-23T11:21:58.248Z,37.50
2022-09-23T11:24:36.003Z,36.70
2022-09-23T11:27:46.899Z,37.00
2022-09-23T11:30:17.958Z,37.00
2022-09-23T11:32:48.205Z,36.70
2022-09-23T11:35:25.882Z,37.90
2022-09-23T11:38:01.419Z,36.50
2022-09-23T11:40:33.567Z,35.80
2022-09-23T11:43:15.949Z,34.80
2022-09-23T11:45:51.231Z,37.80
2022-09-23T11:48:36.792Z,37.10
2022-09-23T11:51:07.109Z,35.40
2022-09-23T11:53:38.334Z,36.00
2022-09-23T11:56:16.294Z,34.90
2022-09-23T11:59:00.152Z,36.00
2022-09-23T12:01:37.651Z,36.00
2022-09-23T12:04:21.010Z,37.00
2022-09-23T12:07:24.253Z,36.30
2022-09-23T12:10:03.767Z,37.00
2022-09-23T12:13:05.289Z,36.10
2022-09-23T12:15:59.201Z,38.10
2022-09-23T12:18:53.197Z,38.50
2022-09-23T12:21:45.745Z,39.50
2022-09-23T12:24:43.615Z,40.00
2022-09-23T12:27:24.340Z,41.80
2022-09-23T12:30:03.098Z,41.90
2022-09-23T12:32:31.002Z,42.80
2022-09-23T12:35:00.028Z,42.90
2022-09-23T12:37:33.912Z,44.40
2022-09-23T12:40:16.627Z,45.80
2022-09-23T12:42:46.340Z,47.20
2022-09-23T12:45:39.659Z,46.40
2022-09-23T12:48:18.594Z,47.40
2022-09-23T12:51:01.803Z,48.50
2022-09-23T12:53:34.868Z,49.10
2022-09-23T12:56:17.547Z,49.00
2022-09-23T12:58:44.280Z,50.80
2022-09-23T13:01:22.785Z,48.90
2022-09-23T13:04:12.564Z,49.40
2022-09-23T13:06:46.682Z,49.10
2022-09-23T13:09:19.043Z,50.40
2022-09-23T13:11:48.061Z,50.00
2022-09-23T13:14:27.246Z,50.50
2022-09-23T13:16:56.991Z,51.00
2022-09-23T13:19:26.720Z,51.70
2022-09-23T13:21:53.513Z,52.60
2022-09-23T13:24:23.009Z,50.90
2022-09-23T13:26:54.982Z,50.50
2022-09-23T13:29:55.586Z,50.80
2022-09-23T13:32:44.812Z,53.40
2022-09-23T13:35:32.283Z,53.60
2022-09-23T13:37:59.074Z,54.40
2022-09-23T13:40:28.819Z,53.50
2022-09-23T13:43:05.292Z,51.60
2022-09-23T13:45:36.700Z,52.10
2022-09-23T13:48:15.425Z,53.60
2022-09-23T13:50:50.880Z,51.40
2022-09-23T13:53:27.354Z,51.30
2022-09-23T13:56:03.530Z,52.00
2022-09-23T13:58:32.167Z,53.00
2022-09-23T14:00:59.561Z,51.70
2022-09-23T14:03:35.364Z,52.20
2022-09-23T14:06:14.316Z,52.20
2022-09-23T14:08:45.089Z,51.00
2022-09-23T14:11:20.465Z,52.90
2022-09-23T14:13:51.630Z,52.70
2022-09-23T14:16:19.654Z,52.20
2022-09-23T14:18:49.585Z,53.00
2022-09-23T14:21:36.441Z,52.50
2022-09-23T14:24:20.514Z,52.90
2022-09-23T14:27:08.437Z,52.60
2022-09-23T14:29:41.179Z,53.50
2022-09-23T14:32:21.007Z,53.80
2022-09-23T14:34:59.641Z,53.20
2022-09-23T14:37:57.205Z,54.80
2022-09-23T14:40:36.802Z,54.40
2022-09-23T14:43:17.266Z,55.00
2022-09-23T14:45:47.322Z,56.60
2022-09-23T14:48:22.864Z,57.40
2022-09-23T14:50:59.253Z,58.20
2022-09-23T14:53:29.050Z,56.80
2022-09-23T14:56:07.411Z,59.60
2022-09-23T14:58:52.261Z,57.30
2022-09-23T15:01:31.443Z,57.50
2022-09-23T15:04:15.621Z,57.30
2022-09-23T15:06:47.576Z,57.20
2022-09-23T15:09:32.286Z,57.80
2022-09-23T15:12:21.183Z,61.50
2022-09-23T15:14:54.708Z,63.60
2022-09-23T15:17:38.469Z,60.80
2022-09-23T15:20:08.930Z,59.20
2022-09-23T15:22:56.019Z,61.70
2022-09-23T15:25:32.858Z,61.10
2022-09-23T15:27:59.530Z,60.00
2022-09-23T15:30:26.790Z,59.70
2022-09-23T15:32:53.772Z,61.80
2022-09-23T15:35:25.554Z,62.10
2022-09-23T15:37:57.104Z,60.50
2022-09-23T15:40:42.096Z,61.80
2022-09-23T15:43:20.516Z,62.50
2022-09-23T15:45:59.810Z,63.70
2022-09-23T15:48:36.455Z,64.10
2022-09-23T15:51:06.864Z,64.50
2022-09-23T15:53:34.441Z,63.60
2022-09-23T15:56:01.510Z,64.60
2022-09-23T15:58:28.506Z,65.10
2022-09-23T16:00:57.121Z,61.30
2022-09-23T16:03:28.272Z,60.50
2022-09-23T16:05:58.160Z,60.50
2022-09-23T16:08:25.731Z,61.20
2022-09-23T16:10:54.792Z,60.10
2022-09-23T16:13:21.802Z,58.70
2022-09-23T16:15:48.625Z,60.20
2022-09-23T16:18:15.523Z,63.40
2022-09-23T16:20:44.712Z,63.10
2022-09-23T16:23:37.000Z,64.60
2022-09-23T16:26:24.683Z,68.00
2022-09-23T16:28:53.991Z,69.40
2022-09-23T16:31:22.258Z,68.80
2022-09-23T16:33:51.314Z,69.80
2022-09-23T16:36:23.929Z,67.70
2022-09-23T16:38:50.800Z,67.40
2022-09-23T16:41:17.533Z,68.80
2022-09-23T16:43:44.390Z,70.00
2022-09-23T16:46:12.725Z,70.00
2022-09-23T16:48:40.862Z,70.70
2022-09-23T16:51:20.515Z,69.90
2022-09-23T16:53:52.119Z,71.30
2022-09-23T16:56:25.816Z,70.50
2022-09-23T16:58:55.538Z,71.80
2022-09-23T17:01:43.568Z,71.80
2022-09-23T17:04:10.930Z,72.80
2022-09-23T17:06:49.931Z,72.30
2022-09-23T17:09:19.877Z,73.30
2022-09-23T17:11:48.799Z,73.40
2022-09-23T17:14:16.086Z,73.00
2022-09-23T17:16:43.063Z,75.40
2022-09-23T17:19:11.908Z,75.70
2022-09-23T17:21:39.285Z,75.90
2022-09-23T17:24:06.349Z,76.10
2022-09-23T17:26:33.600Z,76.50
2022-09-23T17:29:02.103Z,76.00
2022-09-23T17:31:30.108Z,77.30
2022-09-23T17:33:56.874Z,78.50
2022-09-23T17:36:23.722Z,76.90
2022-09-23T17:38:53.566Z,78.70
2022-09-23T17:41:20.867Z,77.50
2022-09-23T17:43:48.369Z,78.00
2022-09-23T17:46:19.033Z,79.60
2022-09-23T17:48:46.993Z,79.90
2022-09-23T17:51:16.207Z,80.10
2022-09-23T17:53:45.297Z,80.40
2022-09-23T17:56:14.977Z,80.10
2022-09-23T17:58:42.590Z,81.50
2022-09-23T18:01:12.477Z,80.40
2022-09-23T18:03:43.338Z,78.90
2022-09-23T18:06:18.907Z,78.70
2022-09-23T18:08:47.798Z,78.50
2022-09-23T18:11:17.354Z,79.10
2022-09-23T18:13:49.527Z,80.30
2022-09-23T18:16:17.107Z,81.30
2022-09-23T18:18:44.637Z,81.90
2022-09-23T18:21:11.453Z,82.00
2022-09-23T18:23:38.186Z,81.10
2022-09-23T18:26:12.839Z,81.30
2022-09-23T18:28:40.045Z,82.10
2022-09-23T18:31:06.809Z,82.10
2022-09-23T18:33:33.576Z,82.30
2022-09-23T18:36:01.400Z,84.30
2022-09-23T18:38:28.418Z,83.30
2022-09-23T18:40:57.632Z,83.60
2022-09-23T18:43:39.364Z,83.80
2022-09-23T18:46:12.669Z,83.90
2022-09-23T18:48:59.068Z,84.10
2022-09-23T18:51:29.052Z,83.80
2022-09-23T18:54:00.034Z,83.10
2022-09-23T18:56:42.019Z,84.20
2022-09-23T18:59:14.367Z,85.50
2022-09-23T19:01:41.725Z,85.90
2022-09-23T19:04:08.811Z,85.90
2022-09-23T19:06:37.521Z,86.30
2022-09-23T19:09:07.091Z,85.80
2022-09-23T19:11:36.716Z,85.20
2022-09-23T19:14:06.607Z,85.80
2022-09-23T19:16:35.400Z,85.30
2022-09-23T19:19:04.085Z,85.20
2022-09-23T19:21:31.764Z,85.10
2022-09-23T19:24:03.447Z,85.20
2022-09-23T19:26:38.943Z,86.40
2022-09-23T19:29:08.344Z,86.90
2022-09-23T19:31:40.210Z,87.50
2022-09-23T19:34:12.470Z,87.10
2022-09-23T19:36:42.109Z,87.70
2022-09-23T19:39:19.746Z,86.70
2022-09-23T19:41:47.154Z,86.70
2022-09-23T19:44:14.775Z,88.30
2022-09-23T19:46:45.001Z,87.80
2022-09-23T19:49:12.401Z,88.20
2022-09-23T19:51:39.872Z,87.80
2022-09-23T19:54:08.946Z,87.80
2022-09-23T19:56:36.450Z,87.90
2022-09-23T19:59:06.811Z,88.80
2022-09-23T20:01:34.320Z,88.60
2022-09-23T20:04:02.014Z,88.90
2022-09-23T20:06:30.755Z,88.90
2022-09-23T20:08:59.448Z,88.60
2022-09-23T20:11:28.645Z,89.20
2022-09-23T20:14:03.974Z,89.00
2022-09-23T20:16:33.294Z,88.90
2022-09-23T20:19:01.284Z,89.00
2022-09-23T20:21:29.652Z,88.90
2022-09-23T20:23:57.762Z,88.90
2022-09-23T20:26:43.480Z,89.60
2022-09-23T20:29:11.201Z,89.60
2022-09-23T20:31:40.323Z,89.40
2022-09-23T20:34:10.471Z,89.20
2022-09-23T20:36:39.508Z,89.10
2022-09-23T20:39:06.820Z,88.90
2022-09-23T20:41:37.708Z,89.90
2022-09-23T20:44:07.832Z,89.80
2022-09-23T20:46:35.778Z,89.70
2022-09-23T20:49:03.851Z,89.40
2022-09-23T20:51:33.242Z,88.90
2022-09-23T20:54:00.632Z,89.70
2022-09-23T20:56:29.092Z,89.80
2022-09-23T20:59:00.151Z,89.80
2022-09-23T21:01:36.305Z,89.70
2022-09-23T21:04:17.216Z,89.90
2022-09-23T21:06:50.345Z,89.30
2022-09-23T21:09:30.883Z,89.60
2022-09-23T21:11:59.152Z,90.10
2022-09-23T21:14:26.117Z,90.10
2022-09-23T21:16:54.729Z,90.20
2022-09-23T21:19:28.298Z,89.80
2022-09-23T21:21:55.212Z,89.30
2022-09-23T21:25:03.479Z,89.20
2022-09-23T21:27:14.068Z,89.00
2022-09-23T21:29:54.321Z,89.20
2022-09-23T21:32:27.998Z,89.30
2022-09-23T21:34:55.044Z,89.30
2022-09-23T21:37:22.418Z,89.20
2022-09-23T21:40:08.254Z,89.30
2022-09-23T21:42:35.389Z,89.40
2022-09-23T21:45:05.165Z,89.40
2022-09-23T21:47:32.425Z,89.60
2022-09-23T21:49:59.332Z,89.40
2022-09-23T21:52:26.227Z,89.30
2022-09-23T21:54:52.947Z,89.20
2022-09-23T21:57:19.730Z,89.20
2022-09-23T21:59:47.363Z,89.30
2022-09-23T22:02:14.229Z,89.40
2022-09-23T22:04:41.174Z,89.30
2022-09-23T22:07:07.968Z,89.50
2022-09-23T22:09:35.197Z,89.60
2022-09-23T22:12:09.853Z,89.50
2022-09-23T22:14:38.814Z,89.50
2022-09-23T22:17:07.726Z,89.40
2022-09-23T22:19:40.316Z,89.80
2022-09-23T22:22:13.306Z,89.70
2022-09-23T22:24:45.247Z,89.40
2022-09-23T22:27:20.373Z,89.30
2022-09-23T22:30:06.017Z,89.20
2022-09-23T22:32:35.658Z,89.60
2022-09-23T22:35:03.116Z,89.90
2022-09-23T22:37:34.261Z,89.60
2022-09-23T22:40:02.527Z,89.80
2022-09-23T22:42:30.487Z,89.80
2022-09-23T22:44:57.474Z,89.80
2022-09-23T22:47:24.437Z,89.90
2022-09-23T22:49:54.422Z,89.60
2022-09-23T22:52:24.431Z,89.90
2022-09-23T22:54:52.397Z,89.90
2022-09-23T22:57:21.092Z,90.10
2022-09-23T22:59:56.657Z,89.90
2022-09-23T23:02:29.682Z,89.80
2022-09-23T23:05:08.832Z,89.80
2022-09-23T23:07:36.205Z,89.80
2022-09-23T23:10:07.228Z,89.90
2022-09-23T23:12:33.991Z,89.40
2022-09-23T23:15:00.721Z,89.30
2022-09-23T23:17:33.113Z,89.60
2022-09-23T23:20:00.111Z,89.50
2022-09-23T23:22:28.430Z,89.70
2022-09-23T23:24:55.261Z,89.40
2022-09-23T23:27:22.401Z,89.80
2022-09-23T23:29:49.417Z,89.90
2022-09-23T23:32:17.035Z,90.30
2022-09-23T23:34:43.974Z,90.50
2022-09-23T23:37:11.066Z,90.40
2022-09-23T23:39:37.784Z,90.40
2022-09-23T23:42:04.833Z,90.60
2022-09-23T23:44:34.359Z,90.60
2022-09-23T23:47:01.717Z,90.70
2022-09-23T23:49:29.210Z,91.20
2022-09-23T23:51:56.364Z,91.40
2022-09-23T23:54:23.209Z,90.80
2022-09-23T23:56:50.118Z,90.90
2022-09-23T23:59:19.613Z,90.70
